Oxdrift, Canada
Current Conditions -  °F | °C
As of 4:00 PM on Friday 31 Oct 2014 (Local Time) from CYHD Reporting Station
Clear Clear  
Wind Chill: -2°   Ceiling: Unl
Heat Index:   Visibility: 9mi
Dew Point: -7°   Wind: 7mph
Humidity: 56%   Direction: 300°WNW
Pressure: 30.46"   Gusts: NA
Location:  49.82°N, 92.98°W
Report Text: CYHD 312100Z AUTO 30006KT 200V310 9SM CLR 01/M07 A3046 RMK SLP341
Loading
Personal Weather Stations






























Interactive Weather Map
Tropical Storm Tracking
New forecast layout! Learn more

10-Day Weather Forecast

Advertisements
Track Severe Weather on mobile